sensor_id;sensor_type;location;lat;lon;timestamp;P1;durP1;ratioP1;P2;durP2;ratioP2
793;SDS011;380;48.738;9.214;2023-04-25T00:01:08;2.95;;;1.45;;
793;SDS011;380;48.738;9.214;2023-04-25T00:03:34;4.38;;;1.40;;
793;SDS011;380;48.738;9.214;2023-04-25T00:06:00;2.13;;;1.45;;
793;SDS011;380;48.738;9.214;2023-04-25T00:08:29;7.03;;;1.58;;
793;SDS011;380;48.738;9.214;2023-04-25T00:10:56;2.25;;;0.95;;
793;SDS011;380;48.738;9.214;2023-04-25T00:13:22;1.65;;;1.02;;
793;SDS011;380;48.738;9.214;2023-04-25T00:15:50;1.90;;;1.02;;
793;SDS011;380;48.738;9.214;2023-04-25T00:18:16;1.80;;;1.13;;
793;SDS011;380;48.738;9.214;2023-04-25T00:20:42;2.17;;;1.42;;
793;SDS011;380;48.738;9.214;2023-04-25T00:23:11;1.95;;;1.10;;
793;SDS011;380;48.738;9.214;2023-04-25T00:25:37;2.00;;;1.17;;
793;SDS011;380;48.738;9.214;2023-04-25T00:28:03;2.85;;;1.65;;
793;SDS011;380;48.738;9.214;2023-04-25T00:30:29;4.35;;;1.65;;
793;SDS011;380;48.738;9.214;2023-04-25T00:32:55;2.38;;;1.40;;
793;SDS011;380;48.738;9.214;2023-04-25T00:35:21;2.03;;;1.20;;
793;SDS011;380;48.738;9.214;2023-04-25T00:37:47;2.47;;;1.70;;
793;SDS011;380;48.738;9.214;2023-04-25T00:40:13;2.28;;;1.25;;
793;SDS011;380;48.738;9.214;2023-04-25T00:42:39;2.63;;;1.35;;
793;SDS011;380;48.738;9.214;2023-04-25T00:45:06;2.55;;;1.52;;
793;SDS011;380;48.738;9.214;2023-04-25T00:47:32;2.20;;;1.20;;
793;SDS011;380;48.738;9.214;2023-04-25T00:49:59;1.83;;;1.30;;
793;SDS011;380;48.738;9.214;2023-04-25T00:52:25;3.20;;;1.33;;
793;SDS011;380;48.738;9.214;2023-04-25T00:54:51;2.67;;;1.75;;
793;SDS011;380;48.738;9.214;2023-04-25T00:57:17;2.95;;;2.00;;
793;SDS011;380;48.738;9.214;2023-04-25T00:59:44;3.47;;;1.60;;
793;SDS011;380;48.738;9.214;2023-04-25T01:02:13;2.72;;;1.55;;
793;SDS011;380;48.738;9.214;2023-04-25T01:04:39;2.40;;;1.63;;
793;SDS011;380;48.738;9.214;2023-04-25T01:07:05;2.25;;;1.55;;
793;SDS011;380;48.738;9.214;2023-04-25T01:09:32;2.22;;;1.65;;
793;SDS011;380;48.738;9.214;2023-04-25T01:11:57;2.65;;;1.70;;
793;SDS011;380;48.738;9.214;2023-04-25T01:14:23;2.28;;;1.45;;
793;SDS011;380;48.738;9.214;2023-04-25T01:16:49;3.08;;;1.90;;
793;SDS011;380;48.738;9.214;2023-04-25T01:19:16;3.45;;;2.10;;
793;SDS011;380;48.738;9.214;2023-04-25T01:21:43;1.90;;;1.30;;
793;SDS011;380;48.738;9.214;2023-04-25T01:24:10;4.35;;;2.00;;
793;SDS011;380;48.738;9.214;2023-04-25T01:26:36;2.95;;;1.73;;
793;SDS011;380;48.738;9.214;2023-04-25T01:29:03;3.63;;;1.90;;
793;SDS011;380;48.738;9.214;2023-04-25T01:31:29;3.75;;;1.85;;
793;SDS011;380;48.738;9.214;2023-04-25T01:33:55;3.50;;;2.35;;
793;SDS011;380;48.738;9.214;2023-04-25T01:36:25;4.25;;;2.10;;
793;SDS011;380;48.738;9.214;2023-04-25T01:38:52;2.17;;;1.35;;
793;SDS011;380;48.738;9.214;2023-04-25T01:41:18;3.08;;;2.30;;
793;SDS011;380;48.738;9.214;2023-04-25T01:43:44;2.80;;;2.05;;
793;SDS011;380;48.738;9.214;2023-04-25T01:46:11;3.53;;;2.25;;
793;SDS011;380;48.738;9.214;2023-04-25T01:48:37;3.15;;;2.22;;
793;SDS011;380;48.738;9.214;2023-04-25T01:51:03;4.53;;;1.73;;
793;SDS011;380;48.738;9.214;2023-04-25T01:53:29;3.17;;;1.92;;
793;SDS011;380;48.738;9.214;2023-04-25T01:55:55;2.85;;;1.77;;
793;SDS011;380;48.738;9.214;2023-04-25T01:58:21;3.15;;;2.30;;
793;SDS011;380;48.738;9.214;2023-04-25T02:00:47;5.07;;;2.03;;
793;SDS011;380;48.738;9.214;2023-04-25T02:03:13;2.55;;;1.75;;
793;SDS011;380;48.738;9.214;2023-04-25T02:05:39;3.88;;;1.83;;
793;SDS011;380;48.738;9.214;2023-04-25T02:08:06;2.67;;;1.75;;
793;SDS011;380;48.738;9.214;2023-04-25T02:10:32;3.75;;;1.80;;
793;SDS011;380;48.738;9.214;2023-04-25T02:12:58;4.32;;;2.13;;
793;SDS011;380;48.738;9.214;2023-04-25T02:15:24;2.60;;;1.92;;
793;SDS011;380;48.738;9.214;2023-04-25T02:17:50;2.65;;;1.80;;
793;SDS011;380;48.738;9.214;2023-04-25T02:20:22;3.03;;;1.48;;
793;SDS011;380;48.738;9.214;2023-04-25T02:22:48;2.55;;;1.33;;
793;SDS011;380;48.738;9.214;2023-04-25T02:25:14;3.15;;;1.65;;
793;SDS011;380;48.738;9.214;2023-04-25T02:27:41;2.40;;;1.40;;
793;SDS011;380;48.738;9.214;2023-04-25T02:30:07;4.38;;;2.00;;
793;SDS011;380;48.738;9.214;2023-04-25T02:32:33;2.03;;;1.35;;
793;SDS011;380;48.738;9.214;2023-04-25T02:35:00;2.10;;;1.48;;
793;SDS011;380;48.738;9.214;2023-04-25T02:37:30;2.65;;;1.38;;
793;SDS011;380;48.738;9.214;2023-04-25T02:39:56;1.40;;;0.88;;
793;SDS011;380;48.738;9.214;2023-04-25T02:42:22;1.52;;;1.05;;
793;SDS011;380;48.738;9.214;2023-04-25T02:44:48;2.47;;;1.27;;
793;SDS011;380;48.738;9.214;2023-04-25T02:47:14;1.98;;;1.10;;
793;SDS011;380;48.738;9.214;2023-04-25T02:49:39;2.78;;;1.55;;
793;SDS011;380;48.738;9.214;2023-04-25T02:52:05;2.83;;;1.20;;
793;SDS011;380;48.738;9.214;2023-04-25T02:54:31;2.47;;;1.40;;
793;SDS011;380;48.738;9.214;2023-04-25T02:56:58;1.98;;;1.23;;
793;SDS011;380;48.738;9.214;2023-04-25T02:59:23;2.67;;;1.38;;
793;SDS011;380;48.738;9.214;2023-04-25T03:01:49;2.78;;;1.27;;
793;SDS011;380;48.738;9.214;2023-04-25T03:04:15;2.10;;;1.30;;
793;SDS011;380;48.738;9.214;2023-04-25T03:06:43;1.95;;;1.25;;
793;SDS011;380;48.738;9.214;2023-04-25T03:09:09;1.60;;;1.10;;
793;SDS011;380;48.738;9.214;2023-04-25T03:11:36;2.05;;;1.17;;
793;SDS011;380;48.738;9.214;2023-04-25T03:14:02;1.58;;;1.10;;
793;SDS011;380;48.738;9.214;2023-04-25T03:16:28;4.05;;;1.25;;
793;SDS011;380;48.738;9.214;2023-04-25T03:18:54;1.92;;;1.27;;
793;SDS011;380;48.738;9.214;2023-04-25T03:21:20;1.92;;;1.05;;
793;SDS011;380;48.738;9.214;2023-04-25T03:23:46;1.60;;;1.20;;
793;SDS011;380;48.738;9.214;2023-04-25T03:26:12;1.92;;;1.08;;
793;SDS011;380;48.738;9.214;2023-04-25T03:28:38;2.20;;;1.08;;
793;SDS011;380;48.738;9.214;2023-04-25T03:31:05;2.35;;;1.42;;
793;SDS011;380;48.738;9.214;2023-04-25T03:33:30;2.25;;;1.45;;
793;SDS011;380;48.738;9.214;2023-04-25T03:35:56;3.42;;;1.10;;
793;SDS011;380;48.738;9.214;2023-04-25T03:38:22;2.72;;;1.50;;
793;SDS011;380;48.738;9.214;2023-04-25T03:40:49;2.50;;;1.65;;
793;SDS011;380;48.738;9.214;2023-04-25T03:43:15;1.95;;;1.17;;
793;SDS011;380;48.738;9.214;2023-04-25T03:45:41;2.92;;;1.58;;
793;SDS011;380;48.738;9.214;2023-04-25T03:48:07;3.65;;;3.22;;
793;SDS011;380;48.738;9.214;2023-04-25T03:50:33;3.42;;;2.17;;
793;SDS011;380;48.738;9.214;2023-04-25T03:53:00;2.30;;;1.38;;
793;SDS011;380;48.738;9.214;2023-04-25T03:55:25;1.55;;;0.93;;
793;SDS011;380;48.738;9.214;2023-04-25T03:57:51;2.45;;;1.45;;
793;SDS011;380;48.738;9.214;2023-04-25T04:00:17;2.28;;;1.23;;
793;SDS011;380;48.738;9.214;2023-04-25T04:02:43;2.70;;;1.65;;
793;SDS011;380;48.738;9.214;2023-04-25T04:05:10;3.00;;;1.77;;
793;SDS011;380;48.738;9.214;2023-04-25T04:07:35;2.97;;;1.58;;
793;SDS011;380;48.738;9.214;2023-04-25T04:10:07;2.22;;;1.52;;
793;SDS011;380;48.738;9.214;2023-04-25T04:12:33;2.80;;;1.70;;
793;SDS011;380;48.738;9.214;2023-04-25T04:14:59;1.90;;;1.20;;
793;SDS011;380;48.738;9.214;2023-04-25T04:17:25;4.43;;;1.80;;
793;SDS011;380;48.738;9.214;2023-04-25T04:19:51;7.30;;;1.60;;
793;SDS011;380;48.738;9.214;2023-04-25T04:22:17;3.83;;;2.00;;
793;SDS011;380;48.738;9.214;2023-04-25T04:24:43;2.17;;;1.45;;
793;SDS011;380;48.738;9.214;2023-04-25T04:27:11;2.67;;;1.75;;
793;SDS011;380;48.738;9.214;2023-04-25T04:29:37;2.55;;;1.45;;
793;SDS011;380;48.738;9.214;2023-04-25T04:32:03;3.08;;;1.27;;
793;SDS011;380;48.738;9.214;2023-04-25T04:34:29;1.98;;;1.50;;
793;SDS011;380;48.738;9.214;2023-04-25T04:36:56;3.10;;;1.63;;
793;SDS011;380;48.738;9.214;2023-04-25T04:39:22;2.65;;;1.63;;
793;SDS011;380;48.738;9.214;2023-04-25T04:41:48;3.42;;;1.88;;
793;SDS011;380;48.738;9.214;2023-04-25T04:44:14;2.78;;;1.75;;
793;SDS011;380;48.738;9.214;2023-04-25T04:46:40;3.33;;;2.10;;
793;SDS011;380;48.738;9.214;2023-04-25T04:49:09;2.88;;;1.90;;
793;SDS011;380;48.738;9.214;2023-04-25T04:51:35;3.95;;;2.10;;
793;SDS011;380;48.738;9.214;2023-04-25T04:54:02;2.83;;;1.83;;
793;SDS011;380;48.738;9.214;2023-04-25T04:56:31;2.88;;;1.67;;
793;SDS011;380;48.738;9.214;2023-04-25T04:58:57;2.50;;;1.70;;
793;SDS011;380;48.738;9.214;2023-04-25T05:01:23;4.65;;;2.13;;
793;SDS011;380;48.738;9.214;2023-04-25T05:03:49;2.15;;;1.45;;
793;SDS011;380;48.738;9.214;2023-04-25T05:06:16;3.03;;;2.00;;
793;SDS011;380;48.738;9.214;2023-04-25T05:08:42;2.30;;;1.60;;
793;SDS011;380;48.738;9.214;2023-04-25T05:11:08;4.00;;;1.88;;
793;SDS011;380;48.738;9.214;2023-04-25T05:13:35;2.70;;;1.70;;
793;SDS011;380;48.738;9.214;2023-04-25T05:16:01;2.80;;;1.77;;
793;SDS011;380;48.738;9.214;2023-04-25T05:18:27;2.30;;;1.60;;
793;SDS011;380;48.738;9.214;2023-04-25T05:20:52;2.22;;;1.63;;
793;SDS011;380;48.738;9.214;2023-04-25T05:23:18;5.03;;;2.08;;
793;SDS011;380;48.738;9.214;2023-04-25T05:25:44;2.70;;;1.55;;
793;SDS011;380;48.738;9.214;2023-04-25T05:28:12;2.78;;;1.65;;
793;SDS011;380;48.738;9.214;2023-04-25T05:30:38;3.72;;;2.05;;
793;SDS011;380;48.738;9.214;2023-04-25T05:33:04;3.13;;;2.00;;
793;SDS011;380;48.738;9.214;2023-04-25T05:35:30;2.60;;;1.73;;
793;SDS011;380;48.738;9.214;2023-04-25T05:37:56;2.97;;;1.90;;
793;SDS011;380;48.738;9.214;2023-04-25T05:40:22;3.95;;;2.17;;
793;SDS011;380;48.738;9.214;2023-04-25T05:42:48;2.65;;;1.95;;
793;SDS011;380;48.738;9.214;2023-04-25T05:45:14;3.90;;;2.35;;
793;SDS011;380;48.738;9.214;2023-04-25T05:47:39;3.92;;;2.70;;
793;SDS011;380;48.738;9.214;2023-04-25T05:50:06;3.60;;;2.47;;
793;SDS011;380;48.738;9.214;2023-04-25T05:52:33;4.15;;;2.22;;
793;SDS011;380;48.738;9.214;2023-04-25T05:54:59;3.00;;;2.10;;
793;SDS011;380;48.738;9.214;2023-04-25T05:57:25;2.78;;;1.75;;
793;SDS011;380;48.738;9.214;2023-04-25T05:59:51;2.80;;;1.90;;
793;SDS011;380;48.738;9.214;2023-04-25T06:02:18;2.58;;;1.90;;
793;SDS011;380;48.738;9.214;2023-04-25T06:04:44;2.70;;;1.85;;
793;SDS011;380;48.738;9.214;2023-04-25T06:07:10;2.85;;;2.38;;
793;SDS011;380;48.738;9.214;2023-04-25T06:09:36;3.15;;;1.88;;
793;SDS011;380;48.738;9.214;2023-04-25T06:12:04;2.67;;;1.80;;
793;SDS011;380;48.738;9.214;2023-04-25T06:14:30;3.60;;;2.22;;
793;SDS011;380;48.738;9.214;2023-04-25T06:16:56;3.25;;;2.17;;
793;SDS011;380;48.738;9.214;2023-04-25T06:19:22;2.63;;;1.55;;
793;SDS011;380;48.738;9.214;2023-04-25T06:21:48;3.60;;;1.77;;
793;SDS011;380;48.738;9.214;2023-04-25T06:24:14;2.80;;;2.22;;
793;SDS011;380;48.738;9.214;2023-04-25T06:26:39;3.50;;;1.92;;
793;SDS011;380;48.738;9.214;2023-04-25T06:29:05;3.33;;;1.80;;
793;SDS011;380;48.738;9.214;2023-04-25T06:31:31;2.65;;;1.58;;
793;SDS011;380;48.738;9.214;2023-04-25T06:33:58;3.83;;;2.53;;
793;SDS011;380;48.738;9.214;2023-04-25T06:36:24;2.90;;;1.95;;
793;SDS011;380;48.738;9.214;2023-04-25T06:38:51;2.45;;;1.48;;
793;SDS011;380;48.738;9.214;2023-04-25T06:41:17;4.13;;;2.00;;
793;SDS011;380;48.738;9.214;2023-04-25T06:43:43;3.83;;;2.13;;
793;SDS011;380;48.738;9.214;2023-04-25T06:46:09;4.85;;;2.35;;
793;SDS011;380;48.738;9.214;2023-04-25T06:48:35;3.08;;;2.08;;
793;SDS011;380;48.738;9.214;2023-04-25T06:51:02;2.55;;;1.88;;
793;SDS011;380;48.738;9.214;2023-04-25T06:53:28;2.60;;;1.90;;
793;SDS011;380;48.738;9.214;2023-04-25T06:55:54;3.40;;;2.03;;
793;SDS011;380;48.738;9.214;2023-04-25T06:58:20;3.72;;;2.22;;
793;SDS011;380;48.738;9.214;2023-04-25T07:00:46;2.90;;;2.10;;
793;SDS011;380;48.738;9.214;2023-04-25T07:03:12;3.45;;;2.42;;
793;SDS011;380;48.738;9.214;2023-04-25T07:05:38;2.88;;;2.13;;
793;SDS011;380;48.738;9.214;2023-04-25T07:08:04;2.92;;;2.10;;
793;SDS011;380;48.738;9.214;2023-04-25T07:10:30;2.75;;;1.80;;
793;SDS011;380;48.738;9.214;2023-04-25T07:12:56;1.95;;;1.50;;
793;SDS011;380;48.738;9.214;2023-04-25T07:15:21;3.13;;;2.20;;
793;SDS011;380;48.738;9.214;2023-04-25T07:17:47;3.08;;;2.05;;
793;SDS011;380;48.738;9.214;2023-04-25T07:20:13;3.67;;;2.13;;
793;SDS011;380;48.738;9.214;2023-04-25T07:22:41;4.25;;;2.30;;
793;SDS011;380;48.738;9.214;2023-04-25T07:25:07;2.60;;;1.92;;
793;SDS011;380;48.738;9.214;2023-04-25T07:27:33;2.83;;;2.05;;
793;SDS011;380;48.738;9.214;2023-04-25T07:29:59;3.85;;;1.85;;
793;SDS011;380;48.738;9.214;2023-04-25T07:32:26;3.00;;;2.25;;
793;SDS011;380;48.738;9.214;2023-04-25T07:34:52;3.75;;;2.33;;
793;SDS011;380;48.738;9.214;2023-04-25T07:37:18;4.95;;;3.10;;
793;SDS011;380;48.738;9.214;2023-04-25T07:39:44;2.50;;;1.83;;
793;SDS011;380;48.738;9.214;2023-04-25T07:42:13;3.58;;;2.55;;
793;SDS011;380;48.738;9.214;2023-04-25T07:44:39;3.30;;;2.70;;
793;SDS011;380;48.738;9.214;2023-04-25T07:47:06;9.00;;;3.15;;
793;SDS011;380;48.738;9.214;2023-04-25T07:49:32;3.25;;;2.85;;
793;SDS011;380;48.738;9.214;2023-04-25T07:51:59;3.53;;;2.75;;
793;SDS011;380;48.738;9.214;2023-04-25T07:54:25;3.83;;;3.10;;
793;SDS011;380;48.738;9.214;2023-04-25T07:56:51;3.90;;;3.03;;
793;SDS011;380;48.738;9.214;2023-04-25T07:59:17;3.65;;;3.10;;
793;SDS011;380;48.738;9.214;2023-04-25T08:01:43;5.05;;;3.50;;
793;SDS011;380;48.738;9.214;2023-04-25T08:04:09;4.32;;;3.25;;
793;SDS011;380;48.738;9.214;2023-04-25T08:06:35;4.63;;;3.40;;
793;SDS011;380;48.738;9.214;2023-04-25T08:09:01;3.90;;;2.97;;
793;SDS011;380;48.738;9.214;2023-04-25T08:11:27;4.25;;;2.92;;
793;SDS011;380;48.738;9.214;2023-04-25T08:13:53;4.60;;;3.38;;
793;SDS011;380;48.738;9.214;2023-04-25T08:16:19;4.70;;;3.08;;
793;SDS011;380;48.738;9.214;2023-04-25T08:18:45;4.30;;;2.97;;
793;SDS011;380;48.738;9.214;2023-04-25T08:21:11;3.85;;;3.17;;
793;SDS011;380;48.738;9.214;2023-04-25T08:23:38;4.88;;;3.58;;
793;SDS011;380;48.738;9.214;2023-04-25T08:26:05;4.25;;;3.00;;
793;SDS011;380;48.738;9.214;2023-04-25T08:28:31;4.35;;;3.28;;
793;SDS011;380;48.738;9.214;2023-04-25T08:30:57;4.15;;;3.28;;
793;SDS011;380;48.738;9.214;2023-04-25T08:33:23;5.00;;;3.67;;
793;SDS011;380;48.738;9.214;2023-04-25T08:35:49;4.22;;;3.58;;
793;SDS011;380;48.738;9.214;2023-04-25T08:38:16;4.85;;;3.38;;
793;SDS011;380;48.738;9.214;2023-04-25T08:40:42;4.78;;;3.30;;
793;SDS011;380;48.738;9.214;2023-04-25T08:43:09;4.20;;;3.17;;
793;SDS011;380;48.738;9.214;2023-04-25T08:45:39;4.57;;;3.05;;
793;SDS011;380;48.738;9.214;2023-04-25T08:48:14;4.05;;;3.35;;
793;SDS011;380;48.738;9.214;2023-04-25T08:50:45;4.03;;;2.92;;
793;SDS011;380;48.738;9.214;2023-04-25T08:53:15;3.88;;;3.30;;
793;SDS011;380;48.738;9.214;2023-04-25T08:55:43;4.43;;;3.10;;
793;SDS011;380;48.738;9.214;2023-04-25T08:58:11;3.97;;;3.10;;
793;SDS011;380;48.738;9.214;2023-04-25T09:00:37;3.40;;;2.90;;
793;SDS011;380;48.738;9.214;2023-04-25T09:03:03;5.78;;;4.50;;
793;SDS011;380;48.738;9.214;2023-04-25T09:05:29;4.43;;;3.70;;
793;SDS011;380;48.738;9.214;2023-04-25T09:07:55;4.05;;;3.50;;
793;SDS011;380;48.738;9.214;2023-04-25T09:10:21;3.97;;;3.58;;
793;SDS011;380;48.738;9.214;2023-04-25T09:13:03;7.03;;;3.45;;
793;SDS011;380;48.738;9.214;2023-04-25T09:15:29;5.78;;;4.25;;
793;SDS011;380;48.738;9.214;2023-04-25T09:17:56;5.60;;;4.47;;
793;SDS011;380;48.738;9.214;2023-04-25T09:20:22;4.75;;;4.03;;
793;SDS011;380;48.738;9.214;2023-04-25T09:22:49;5.82;;;3.58;;
793;SDS011;380;48.738;9.214;2023-04-25T09:25:15;4.43;;;2.97;;
793;SDS011;380;48.738;9.214;2023-04-25T09:27:49;3.80;;;3.40;;
793;SDS011;380;48.738;9.214;2023-04-25T09:30:16;3.78;;;3.03;;
793;SDS011;380;48.738;9.214;2023-04-25T09:32:42;5.22;;;3.45;;
793;SDS011;380;48.738;9.214;2023-04-25T09:35:08;3.78;;;3.13;;
793;SDS011;380;48.738;9.214;2023-04-25T09:37:35;5.43;;;3.83;;
793;SDS011;380;48.738;9.214;2023-04-25T09:40:04;5.50;;;3.97;;
793;SDS011;380;48.738;9.214;2023-04-25T09:42:31;4.80;;;3.50;;
793;SDS011;380;48.738;9.214;2023-04-25T09:44:59;4.97;;;3.72;;
793;SDS011;380;48.738;9.214;2023-04-25T09:47:26;5.10;;;3.67;;
793;SDS011;380;48.738;9.214;2023-04-25T09:49:53;3.78;;;3.28;;
793;SDS011;380;48.738;9.214;2023-04-25T09:52:20;4.40;;;3.65;;
793;SDS011;380;48.738;9.214;2023-04-25T09:54:47;3.92;;;2.75;;
793;SDS011;380;48.738;9.214;2023-04-25T09:57:14;3.35;;;2.50;;
793;SDS011;380;48.738;9.214;2023-04-25T09:59:47;3.88;;;2.83;;
793;SDS011;380;48.738;9.214;2023-04-25T10:02:14;3.67;;;2.50;;
793;SDS011;380;48.738;9.214;2023-04-25T10:04:41;2.80;;;2.20;;
793;SDS011;380;48.738;9.214;2023-04-25T10:07:08;3.30;;;1.85;;
793;SDS011;380;48.738;9.214;2023-04-25T10:09:36;4.78;;;2.65;;
793;SDS011;380;48.738;9.214;2023-04-25T10:12:02;3.45;;;2.63;;
793;SDS011;380;48.738;9.214;2023-04-25T10:14:31;3.40;;;2.75;;
793;SDS011;380;48.738;9.214;2023-04-25T10:16:57;3.63;;;2.63;;
793;SDS011;380;48.738;9.214;2023-04-25T10:19:24;3.60;;;2.33;;
793;SDS011;380;48.738;9.214;2023-04-25T10:21:52;1.95;;;1.42;;
793;SDS011;380;48.738;9.214;2023-04-25T10:24:19;2.92;;;1.77;;
793;SDS011;380;48.738;9.214;2023-04-25T10:26:45;2.22;;;1.27;;
793;SDS011;380;48.738;9.214;2023-04-25T10:29:11;2.17;;;1.48;;
793;SDS011;380;48.738;9.214;2023-04-25T10:31:46;1.92;;;1.02;;
793;SDS011;380;48.738;9.214;2023-04-25T10:34:12;2.17;;;1.23;;
793;SDS011;380;48.738;9.214;2023-04-25T10:36:38;2.22;;;1.42;;
793;SDS011;380;48.738;9.214;2023-04-25T10:39:05;1.90;;;1.10;;
793;SDS011;380;48.738;9.214;2023-04-25T10:41:32;1.50;;;0.98;;
793;SDS011;380;48.738;9.214;2023-04-25T10:44:10;1.42;;;0.80;;
793;SDS011;380;48.738;9.214;2023-04-25T10:46:36;1.23;;;0.63;;
793;SDS011;380;48.738;9.214;2023-04-25T10:49:03;1.70;;;0.98;;
793;SDS011;380;48.738;9.214;2023-04-25T10:51:32;1.35;;;0.70;;
793;SDS011;380;48.738;9.214;2023-04-25T10:56:25;1.50;;;0.85;;
793;SDS011;380;48.738;9.214;2023-04-25T10:58:51;1.08;;;0.50;;
793;SDS011;380;48.738;9.214;2023-04-25T11:01:21;1.50;;;0.63;;
793;SDS011;380;48.738;9.214;2023-04-25T11:03:56;1.65;;;0.68;;
793;SDS011;380;48.738;9.214;2023-04-25T11:06:23;0.82;;;0.43;;
793;SDS011;380;48.738;9.214;2023-04-25T11:08:53;1.85;;;0.95;;
793;SDS011;380;48.738;9.214;2023-04-25T11:11:19;2.25;;;1.35;;
793;SDS011;380;48.738;9.214;2023-04-25T11:13:48;3.13;;;2.13;;
793;SDS011;380;48.738;9.214;2023-04-25T11:16:15;3.13;;;1.90;;
793;SDS011;380;48.738;9.214;2023-04-25T11:18:41;2.85;;;2.10;;
793;SDS011;380;48.738;9.214;2023-04-25T11:21:08;2.30;;;1.52;;
793;SDS011;380;48.738;9.214;2023-04-25T11:23:33;4.03;;;1.98;;
793;SDS011;380;48.738;9.214;2023-04-25T11:25:59;3.55;;;1.50;;
793;SDS011;380;48.738;9.214;2023-04-25T11:28:26;2.33;;;1.55;;
793;SDS011;380;48.738;9.214;2023-04-25T11:30:52;2.83;;;1.75;;
793;SDS011;380;48.738;9.214;2023-04-25T11:33:22;3.05;;;1.88;;
793;SDS011;380;48.738;9.214;2023-04-25T11:35:48;3.20;;;2.03;;
793;SDS011;380;48.738;9.214;2023-04-25T11:38:14;2.85;;;1.88;;
793;SDS011;380;48.738;9.214;2023-04-25T11:40:40;3.00;;;2.20;;
793;SDS011;380;48.738;9.214;2023-04-25T11:43:06;3.17;;;1.48;;
793;SDS011;380;48.738;9.214;2023-04-25T11:45:32;2.90;;;1.88;;
793;SDS011;380;48.738;9.214;2023-04-25T11:47:58;2.72;;;1.92;;
793;SDS011;380;48.738;9.214;2023-04-25T11:50:24;2.70;;;1.77;;
793;SDS011;380;48.738;9.214;2023-04-25T11:52:55;3.00;;;1.98;;
793;SDS011;380;48.738;9.214;2023-04-25T11:55:21;2.80;;;1.70;;
793;SDS011;380;48.738;9.214;2023-04-25T11:57:48;2.88;;;1.73;;
793;SDS011;380;48.738;9.214;2023-04-25T12:00:16;2.75;;;1.60;;
793;SDS011;380;48.738;9.214;2023-04-25T12:02:43;2.95;;;1.58;;
793;SDS011;380;48.738;9.214;2023-04-25T12:05:10;2.50;;;1.80;;
793;SDS011;380;48.738;9.214;2023-04-25T12:07:36;3.83;;;2.80;;
793;SDS011;380;48.738;9.214;2023-04-25T12:10:10;3.15;;;2.60;;
793;SDS011;380;48.738;9.214;2023-04-25T12:12:36;3.08;;;2.22;;
793;SDS011;380;48.738;9.214;2023-04-25T12:15:09;4.32;;;3.03;;
793;SDS011;380;48.738;9.214;2023-04-25T12:17:36;3.20;;;2.75;;
793;SDS011;380;48.738;9.214;2023-04-25T12:20:06;3.83;;;2.78;;
793;SDS011;380;48.738;9.214;2023-04-25T12:22:32;4.57;;;3.65;;
793;SDS011;380;48.738;9.214;2023-04-25T12:24:58;4.43;;;3.10;;
793;SDS011;380;48.738;9.214;2023-04-25T12:27:25;4.68;;;3.25;;
793;SDS011;380;48.738;9.214;2023-04-25T12:29:55;4.85;;;3.70;;
793;SDS011;380;48.738;9.214;2023-04-25T12:32:21;4.05;;;3.03;;
793;SDS011;380;48.738;9.214;2023-04-25T12:34:47;5.10;;;3.35;;
793;SDS011;380;48.738;9.214;2023-04-25T12:37:13;4.03;;;3.25;;
793;SDS011;380;48.738;9.214;2023-04-25T12:39:40;4.30;;;3.33;;
793;SDS011;380;48.738;9.214;2023-04-25T12:42:06;4.13;;;3.58;;
793;SDS011;380;48.738;9.214;2023-04-25T12:44:38;4.57;;;3.10;;
793;SDS011;380;48.738;9.214;2023-04-25T12:47:04;5.25;;;3.00;;
793;SDS011;380;48.738;9.214;2023-04-25T12:49:31;4.32;;;3.65;;
793;SDS011;380;48.738;9.214;2023-04-25T12:51:57;5.22;;;3.55;;
793;SDS011;380;48.738;9.214;2023-04-25T12:54:23;4.05;;;3.17;;
793;SDS011;380;48.738;9.214;2023-04-25T12:56:50;4.68;;;3.95;;
793;SDS011;380;48.738;9.214;2023-04-25T12:59:16;4.75;;;3.97;;
793;SDS011;380;48.738;9.214;2023-04-25T13:01:42;5.75;;;3.72;;
793;SDS011;380;48.738;9.214;2023-04-25T13:04:10;5.28;;;3.60;;
793;SDS011;380;48.738;9.214;2023-04-25T13:06:36;4.85;;;3.80;;
793;SDS011;380;48.738;9.214;2023-04-25T13:09:02;5.60;;;3.72;;
793;SDS011;380;48.738;9.214;2023-04-25T13:11:28;5.70;;;4.05;;
793;SDS011;380;48.738;9.214;2023-04-25T13:13:54;4.35;;;3.80;;
793;SDS011;380;48.738;9.214;2023-04-25T13:16:20;4.82;;;3.47;;
793;SDS011;380;48.738;9.214;2023-04-25T13:18:46;4.20;;;3.40;;
793;SDS011;380;48.738;9.214;2023-04-25T13:21:12;7.53;;;4.95;;
793;SDS011;380;48.738;9.214;2023-04-25T13:23:38;5.05;;;3.70;;
793;SDS011;380;48.738;9.214;2023-04-25T13:26:05;7.28;;;4.00;;
793;SDS011;380;48.738;9.214;2023-04-25T13:28:31;4.97;;;3.55;;
793;SDS011;380;48.738;9.214;2023-04-25T13:30:57;5.18;;;3.63;;
793;SDS011;380;48.738;9.214;2023-04-25T13:33:24;4.60;;;3.60;;
793;SDS011;380;48.738;9.214;2023-04-25T13:35:50;10.60;;;3.75;;
793;SDS011;380;48.738;9.214;2023-04-25T13:38:21;5.25;;;3.88;;
793;SDS011;380;48.738;9.214;2023-04-25T13:40:47;5.05;;;4.00;;
793;SDS011;380;48.738;9.214;2023-04-25T13:43:13;7.60;;;3.60;;
793;SDS011;380;48.738;9.214;2023-04-25T13:45:39;4.95;;;4.28;;
793;SDS011;380;48.738;9.214;2023-04-25T13:48:06;4.88;;;4.00;;
793;SDS011;380;48.738;9.214;2023-04-25T13:50:32;4.75;;;4.18;;
793;SDS011;380;48.738;9.214;2023-04-25T13:52:57;6.10;;;4.40;;
793;SDS011;380;48.738;9.214;2023-04-25T13:55:23;6.55;;;4.15;;
793;SDS011;380;48.738;9.214;2023-04-25T13:57:49;5.45;;;4.68;;
793;SDS011;380;48.738;9.214;2023-04-25T14:00:15;7.30;;;4.85;;
793;SDS011;380;48.738;9.214;2023-04-25T14:02:41;8.10;;;5.05;;
793;SDS011;380;48.738;9.214;2023-04-25T14:05:07;6.53;;;5.18;;
793;SDS011;380;48.738;9.214;2023-04-25T14:07:34;6.13;;;4.40;;
793;SDS011;380;48.738;9.214;2023-04-25T14:10:00;5.40;;;4.85;;
793;SDS011;380;48.738;9.214;2023-04-25T14:12:26;6.30;;;5.50;;
793;SDS011;380;48.738;9.214;2023-04-25T14:14:52;7.65;;;5.20;;
793;SDS011;380;48.738;9.214;2023-04-25T14:17:18;6.40;;;5.80;;
793;SDS011;380;48.738;9.214;2023-04-25T14:19:44;6.15;;;5.65;;
793;SDS011;380;48.738;9.214;2023-04-25T14:22:13;6.43;;;5.53;;
793;SDS011;380;48.738;9.214;2023-04-25T14:24:39;6.18;;;5.07;;
793;SDS011;380;48.738;9.214;2023-04-25T14:27:05;6.93;;;6.03;;
793;SDS011;380;48.738;9.214;2023-04-25T14:29:32;5.63;;;5.03;;
793;SDS011;380;48.738;9.214;2023-04-25T14:31:58;5.40;;;4.45;;
793;SDS011;380;48.738;9.214;2023-04-25T14:34:25;7.18;;;5.43;;
793;SDS011;380;48.738;9.214;2023-04-25T14:36:51;6.47;;;5.60;;
793;SDS011;380;48.738;9.214;2023-04-25T14:39:17;5.10;;;4.60;;
793;SDS011;380;48.738;9.214;2023-04-25T14:41:43;5.57;;;4.35;;
793;SDS011;380;48.738;9.214;2023-04-25T14:44:09;4.72;;;4.25;;
793;SDS011;380;48.738;9.214;2023-04-25T14:46:35;8.30;;;4.60;;
793;SDS011;380;48.738;9.214;2023-04-25T14:49:02;6.28;;;4.72;;
793;SDS011;380;48.738;9.214;2023-04-25T14:51:28;6.53;;;4.68;;
793;SDS011;380;48.738;9.214;2023-04-25T14:53:54;4.57;;;4.18;;
793;SDS011;380;48.738;9.214;2023-04-25T14:56:21;4.07;;;3.13;;
793;SDS011;380;48.738;9.214;2023-04-25T14:58:47;6.15;;;4.18;;
793;SDS011;380;48.738;9.214;2023-04-25T15:01:13;4.53;;;3.45;;
793;SDS011;380;48.738;9.214;2023-04-25T15:03:40;4.47;;;3.45;;
793;SDS011;380;48.738;9.214;2023-04-25T15:06:06;3.88;;;3.00;;
793;SDS011;380;48.738;9.214;2023-04-25T15:08:32;3.33;;;3.03;;
793;SDS011;380;48.738;9.214;2023-04-25T15:10:58;4.95;;;3.00;;
793;SDS011;380;48.738;9.214;2023-04-25T15:13:24;3.83;;;2.90;;
793;SDS011;380;48.738;9.214;2023-04-25T15:15:50;5.93;;;3.17;;
793;SDS011;380;48.738;9.214;2023-04-25T15:18:19;4.45;;;2.90;;
793;SDS011;380;48.738;9.214;2023-04-25T15:20:47;3.90;;;2.92;;
793;SDS011;380;48.738;9.214;2023-04-25T15:23:13;6.72;;;3.53;;
793;SDS011;380;48.738;9.214;2023-04-25T15:25:39;5.30;;;3.55;;
793;SDS011;380;48.738;9.214;2023-04-25T15:28:05;4.88;;;3.20;;
793;SDS011;380;48.738;9.214;2023-04-25T15:30:31;4.88;;;3.90;;
793;SDS011;380;48.738;9.214;2023-04-25T15:32:57;3.67;;;3.15;;
793;SDS011;380;48.738;9.214;2023-04-25T15:35:23;3.88;;;2.78;;
793;SDS011;380;48.738;9.214;2023-04-25T15:37:49;3.85;;;2.83;;
793;SDS011;380;48.738;9.214;2023-04-25T15:40:16;7.35;;;3.45;;
793;SDS011;380;48.738;9.214;2023-04-25T15:42:43;4.40;;;3.67;;